TVF43GH LFBH-LFMP
Flight info
| Callsign | TVF43GH |
|---|---|
| Flight time | 0h 46m |
| Altitude | 19000 |
| Route | MAREN A25 ESUZE/N0456F310 DCT VELIN/N0390F190 R17 SECHE G39 GAI G36 ORBIL |
| Aircraft | B738/M-SDE2E3FGHIRWXY/LB1 |
Departure
| Time | 2026-04-20 15:17 |
|---|---|
| Airport | La Rochelle Île de Ré Airport (LFBH) |
Arrival
| Time | 2026-04-20 16:03 |
|---|---|
| Airport | Perpignan-Rivesaltes (Llabanère) Airport (LFMP) |
| Time | Latitude | Longitude | Altitude | Speed | Heading |
|---|---|---|---|---|---|
| 2026-04-20 15:03 | 46.17648 | -1.19283 | 69 ft | 0 kts | 318° |
| 2026-04-20 15:13 | 46.17649 | -1.19284 | 103 ft | 1 kts | 318° |
| 2026-04-20 15:14 | 46.17659 | -1.19298 | 68 ft | 4 kts | 319° |
| 2026-04-20 15:14 | 46.17685 | -1.19339 | 70 ft | 7 kts | 295° |
| 2026-04-20 15:14 | 46.17690 | -1.19428 | 76 ft | 11 kts | 272° |
| 2026-04-20 15:14 | 46.17740 | -1.19500 | 75 ft | 13 kts | 358° |
| 2026-04-20 15:15 | 46.17836 | -1.19492 | 68 ft | 15 kts | 4° |
| 2026-04-20 15:15 | 46.17927 | -1.19531 | 71 ft | 15 kts | 288° |
| 2026-04-20 15:15 | 46.17927 | -1.19694 | 68 ft | 20 kts | 270° |
| 2026-04-20 15:15 | 46.17932 | -1.19955 | 75 ft | 30 kts | 272° |
| 2026-04-20 15:16 | 46.17942 | -1.20259 | 66 ft | 30 kts | 273° |
| 2026-04-20 15:16 | 46.17951 | -1.20557 | 73 ft | 29 kts | 270° |
| 2026-04-20 15:16 | 46.17953 | -1.20835 | 72 ft | 26 kts | 255° |
| 2026-04-20 15:16 | 46.17958 | -1.20927 | 74 ft | 11 kts | 21° |
| 2026-04-20 15:17 | 46.17964 | -1.20818 | 72 ft | 15 kts | 93° |
| 2026-04-20 15:17 | 46.17948 | -1.20337 | 70 ft | 92 kts | 94° |
| 2026-04-20 15:17 | 46.17933 | -1.19038 | 294 ft | 150 kts | 86° |
| 2026-04-20 15:17 | 46.17938 | -1.17455 | 1205 ft | 172 kts | 89° |
| 2026-04-20 15:18 | 46.17372 | -1.15765 | 1965 ft | 203 kts | 130° |
| 2026-04-20 15:18 | 46.16058 | -1.14676 | 2449 ft | 236 kts | 159° |
| 2026-04-20 15:18 | 46.14416 | -1.14212 | 3176 ft | 240 kts | 167° |
| 2026-04-20 15:18 | 46.12758 | -1.13897 | 3954 ft | 243 kts | 171° |
| 2026-04-20 15:19 | 46.11073 | -1.13596 | 4692 ft | 247 kts | 172° |
| 2026-04-20 15:19 | 46.09305 | -1.13276 | 5045 ft | 270 kts | 173° |
| 2026-04-20 15:19 | 46.07415 | -1.12926 | 5863 ft | 276 kts | 173° |
| 2026-04-20 15:19 | 46.05513 | -1.12565 | 6898 ft | 276 kts | 174° |
| 2026-04-20 15:20 | 46.03575 | -1.12192 | 7776 ft | 282 kts | 174° |
| 2026-04-20 15:20 | 46.01627 | -1.11814 | 8604 ft | 289 kts | 174° |
| 2026-04-20 15:20 | 45.99646 | -1.11425 | 9551 ft | 291 kts | 175° |
| 2026-04-20 15:20 | 45.97626 | -1.11027 | 10426 ft | 296 kts | 175° |
| 2026-04-20 15:21 | 45.95497 | -1.10610 | 10733 ft | 322 kts | 175° |
| 2026-04-20 15:21 | 45.93185 | -1.10157 | 10934 ft | 348 kts | 175° |
| 2026-04-20 15:21 | 45.90715 | -1.09669 | 11348 ft | 365 kts | 175° |
| 2026-04-20 15:21 | 45.88168 | -1.09159 | 12048 ft | 371 kts | 175° |
| 2026-04-20 15:22 | 45.85595 | -1.08643 | 12889 ft | 374 kts | 175° |
| 2026-04-20 15:22 | 45.83025 | -1.08130 | 13669 ft | 379 kts | 176° |
| 2026-04-20 15:22 | 45.80382 | -1.07604 | 14354 ft | 385 kts | 176° |
| 2026-04-20 15:22 | 45.77708 | -1.07074 | 15074 ft | 388 kts | 176° |
| 2026-04-20 15:23 | 45.75046 | -1.06548 | 15784 ft | 392 kts | 176° |
| 2026-04-20 15:23 | 45.72335 | -1.05935 | 16501 ft | 397 kts | 172° |
| 2026-04-20 15:23 | 45.69635 | -1.04961 | 17184 ft | 403 kts | 168° |
| 2026-04-20 15:23 | 45.66915 | -1.03865 | 17859 ft | 408 kts | 168° |
| 2026-04-20 15:24 | 45.64175 | -1.02767 | 18503 ft | 411 kts | 169° |
| 2026-04-20 15:24 | 45.61392 | -1.01703 | 19093 ft | 414 kts | 169° |
| 2026-04-20 15:24 | 45.58585 | -1.00655 | 19664 ft | 418 kts | 169° |
| 2026-04-20 15:24 | 45.55793 | -0.99620 | 20224 ft | 421 kts | 169° |
| 2026-04-20 15:25 | 45.52941 | -0.98563 | 20805 ft | 425 kts | 169° |
| 2026-04-20 15:25 | 45.50067 | -0.97496 | 21344 ft | 429 kts | 169° |
| 2026-04-20 15:25 | 45.47159 | -0.96415 | 21865 ft | 433 kts | 169° |
| 2026-04-20 15:25 | 45.44229 | -0.95325 | 22383 ft | 437 kts | 169° |
| 2026-04-20 15:26 | 45.41757 | -0.94407 | 22825 ft | 440 kts | 169° |
| 2026-04-20 15:26 | 45.41489 | -0.94308 | 22872 ft | 440 kts | 169° |
| 2026-04-20 15:26 | 45.39943 | -0.93735 | 23141 ft | 442 kts | 169° |
| 2026-04-20 15:26 | 45.37058 | -0.92272 | 23558 ft | 453 kts | 154° |
| 2026-04-20 15:27 | 45.34534 | -0.89525 | 23995 ft | 463 kts | 135° |
| 2026-04-20 15:27 | 45.32700 | -0.85753 | 24487 ft | 468 kts | 117° |
| 2026-04-20 15:27 | 45.31328 | -0.81554 | 24974 ft | 469 kts | 115° |
| 2026-04-20 15:27 | 45.29957 | -0.77323 | 25306 ft | 474 kts | 115° |
| 2026-04-20 15:28 | 45.28564 | -0.73060 | 25658 ft | 478 kts | 116° |
| 2026-04-20 15:28 | 45.27143 | -0.68779 | 26061 ft | 480 kts | 116° |
| 2026-04-20 15:28 | 45.25701 | -0.64488 | 26468 ft | 482 kts | 116° |
| 2026-04-20 15:28 | 45.24236 | -0.60175 | 26854 ft | 485 kts | 116° |
| 2026-04-20 15:29 | 45.22759 | -0.55851 | 27200 ft | 488 kts | 117° |
| 2026-04-20 15:29 | 45.21267 | -0.51498 | 27553 ft | 491 kts | 117° |
| 2026-04-20 15:29 | 45.19786 | -0.47186 | 27897 ft | 494 kts | 117° |
| 2026-04-20 15:29 | 45.18276 | -0.42791 | 28259 ft | 495 kts | 117° |
| 2026-04-20 15:30 | 45.16766 | -0.38403 | 28689 ft | 496 kts | 117° |
| 2026-04-20 15:30 | 45.15251 | -0.34004 | 29033 ft | 498 kts | 117° |
| 2026-04-20 15:30 | 45.13725 | -0.29580 | 29427 ft | 499 kts | 117° |
| 2026-04-20 15:30 | 45.12201 | -0.25168 | 29923 ft | 497 kts | 117° |
| 2026-04-20 15:31 | 45.10682 | -0.20777 | 30378 ft | 495 kts | 117° |
| 2026-04-20 15:31 | 45.09168 | -0.16409 | 30814 ft | 493 kts | 117° |
| 2026-04-20 15:31 | 45.07651 | -0.12039 | 30930 ft | 497 kts | 117° |
| 2026-04-20 15:32 | 45.04589 | -0.03240 | 30924 ft | 497 kts | 117° |
| 2026-04-20 15:32 | 45.01550 | 0.05469 | 30932 ft | 493 kts | 117° |
| 2026-04-20 15:33 | 44.98007 | 0.13663 | 30927 ft | 490 kts | 135° |
| 2026-04-20 15:33 | 44.95512 | 0.16909 | 30928 ft | 487 kts | 146° |
| 2026-04-20 15:33 | 44.92651 | 0.19427 | 30928 ft | 481 kts | 158° |
| 2026-04-20 15:34 | 44.86567 | 0.23336 | 30938 ft | 481 kts | 159° |
| 2026-04-20 15:34 | 44.80478 | 0.27304 | 30936 ft | 482 kts | 159° |
| 2026-04-20 15:35 | 44.74421 | 0.31349 | 30932 ft | 482 kts | 158° |
| 2026-04-20 15:35 | 44.68396 | 0.35356 | 30930 ft | 481 kts | 158° |
| 2026-04-20 15:36 | 44.62337 | 0.39360 | 30939 ft | 480 kts | 159° |
| 2026-04-20 15:36 | 44.56287 | 0.43351 | 30921 ft | 479 kts | 159° |
| 2026-04-20 15:37 | 44.50240 | 0.47334 | 30919 ft | 479 kts | 159° |
| 2026-04-20 15:37 | 44.44600 | 0.52241 | 30927 ft | 487 kts | 139° |
| 2026-04-20 15:37 | 44.42345 | 0.55812 | 30917 ft | 491 kts | 127° |
| 2026-04-20 15:38 | 44.40625 | 0.59951 | 30937 ft | 492 kts | 118° |
| 2026-04-20 15:38 | 44.37620 | 0.68568 | 30926 ft | 492 kts | 117° |
| 2026-04-20 15:39 | 44.34563 | 0.77144 | 30933 ft | 492 kts | 118° |
| 2026-04-20 15:39 | 44.31459 | 0.85615 | 30933 ft | 493 kts | 118° |
| 2026-04-20 15:40 | 44.28323 | 0.94140 | 30932 ft | 494 kts | 118° |
| 2026-04-20 15:40 | 44.25177 | 1.02687 | 30932 ft | 494 kts | 118° |
| 2026-04-20 15:41 | 44.22049 | 1.11169 | 30935 ft | 495 kts | 118° |
| 2026-04-20 15:41 | 44.18894 | 1.19700 | 30936 ft | 495 kts | 119° |
| 2026-04-20 15:42 | 44.15729 | 1.28226 | 30934 ft | 495 kts | 119° |
| 2026-04-20 15:42 | 44.12559 | 1.36743 | 30935 ft | 495 kts | 119° |
| 2026-04-20 15:42 | 44.10966 | 1.41011 | 30568 ft | 499 kts | 119° |
| 2026-04-20 15:43 | 44.09365 | 1.45294 | 29802 ft | 499 kts | 119° |
| 2026-04-20 15:43 | 44.07761 | 1.49581 | 28912 ft | 498 kts | 119° |
| 2026-04-20 15:43 | 44.06183 | 1.53792 | 28071 ft | 496 kts | 119° |
| 2026-04-20 15:43 | 44.04590 | 1.58036 | 27343 ft | 493 kts | 119° |
| 2026-04-20 15:44 | 44.03024 | 1.62205 | 26733 ft | 487 kts | 119° |
| 2026-04-20 15:44 | 44.01448 | 1.66392 | 26081 ft | 482 kts | 118° |
| 2026-04-20 15:44 | 43.99904 | 1.70489 | 25483 ft | 477 kts | 118° |
| 2026-04-20 15:44 | 43.98372 | 1.74547 | 24884 ft | 472 kts | 118° |
| 2026-04-20 15:45 | 43.96751 | 1.78495 | 24247 ft | 467 kts | 126° |
| 2026-04-20 15:45 | 43.94725 | 1.81993 | 23572 ft | 463 kts | 135° |
| 2026-04-20 15:45 | 43.92368 | 1.84995 | 22978 ft | 455 kts | 144° |
| 2026-04-20 15:45 | 43.89773 | 1.87435 | 22350 ft | 447 kts | 151° |
| 2026-04-20 15:46 | 43.87125 | 1.89655 | 21744 ft | 442 kts | 152° |
| 2026-04-20 15:46 | 43.84502 | 1.91856 | 21136 ft | 438 kts | 151° |
| 2026-04-20 15:46 | 43.81916 | 1.94048 | 20533 ft | 434 kts | 151° |
| 2026-04-20 15:46 | 43.79390 | 1.96210 | 19942 ft | 431 kts | 151° |
| 2026-04-20 15:47 | 43.77675 | 1.97685 | 19554 ft | 428 kts | 150° |
| 2026-04-20 15:47 | 43.74344 | 2.00554 | 18793 ft | 423 kts | 150° |
| 2026-04-20 15:47 | 43.71846 | 2.02701 | 18194 ft | 421 kts | 150° |
| 2026-04-20 15:47 | 43.69378 | 2.04863 | 17556 ft | 418 kts | 149° |
| 2026-04-20 15:48 | 43.67738 | 2.06337 | 17144 ft | 415 kts | 149° |
| 2026-04-20 15:48 | 43.65334 | 2.08518 | 16572 ft | 411 kts | 149° |
| 2026-04-20 15:48 | 43.62985 | 2.10652 | 16003 ft | 407 kts | 149° |
| 2026-04-20 15:48 | 43.60624 | 2.12790 | 15431 ft | 403 kts | 149° |
| 2026-04-20 15:49 | 43.58284 | 2.14900 | 14906 ft | 400 kts | 149° |
| 2026-04-20 15:49 | 43.55964 | 2.16986 | 14357 ft | 397 kts | 149° |
| 2026-04-20 15:49 | 43.53654 | 2.19059 | 13774 ft | 395 kts | 149° |
| 2026-04-20 15:49 | 43.51358 | 2.21118 | 13177 ft | 392 kts | 149° |
| 2026-04-20 15:50 | 43.49076 | 2.23162 | 12580 ft | 388 kts | 149° |
| 2026-04-20 15:50 | 43.46817 | 2.25183 | 12033 ft | 385 kts | 149° |
| 2026-04-20 15:50 | 43.44571 | 2.27168 | 11532 ft | 380 kts | 149° |
| 2026-04-20 15:50 | 43.42347 | 2.29111 | 10999 ft | 377 kts | 149° |
| 2026-04-20 15:51 | 43.40187 | 2.30996 | 10791 ft | 364 kts | 150° |
| 2026-04-20 15:51 | 43.38084 | 2.32837 | 10547 ft | 351 kts | 150° |
| 2026-04-20 15:51 | 43.36061 | 2.34598 | 10433 ft | 337 kts | 150° |
| 2026-04-20 15:51 | 43.34109 | 2.36300 | 10282 ft | 327 kts | 150° |
| 2026-04-20 15:52 | 43.32211 | 2.37940 | 10141 ft | 317 kts | 150° |
| 2026-04-20 15:52 | 43.30368 | 2.39529 | 9999 ft | 308 kts | 150° |
| 2026-04-20 15:52 | 43.28581 | 2.41066 | 9839 ft | 300 kts | 151° |
| 2026-04-20 15:53 | 43.25047 | 2.44104 | 9216 ft | 297 kts | 150° |
| 2026-04-20 15:53 | 43.23299 | 2.45606 | 8919 ft | 296 kts | 150° |
| 2026-04-20 15:53 | 43.21564 | 2.47117 | 8609 ft | 295 kts | 148° |
| 2026-04-20 15:53 | 43.19895 | 2.48741 | 8314 ft | 293 kts | 147° |
| 2026-04-20 15:54 | 43.18218 | 2.50295 | 8032 ft | 290 kts | 149° |
| 2026-04-20 15:54 | 43.16709 | 2.51601 | 7791 ft | 289 kts | 150° |
| 2026-04-20 15:54 | 43.14996 | 2.53038 | 7501 ft | 288 kts | 150° |
| 2026-04-20 15:54 | 43.13281 | 2.54462 | 7128 ft | 289 kts | 150° |
| 2026-04-20 15:55 | 43.11577 | 2.55882 | 6873 ft | 285 kts | 150° |
| 2026-04-20 15:55 | 43.09889 | 2.57293 | 6689 ft | 279 kts | 149° |
| 2026-04-20 15:55 | 43.08282 | 2.58651 | 6704 ft | 266 kts | 149° |
| 2026-04-20 15:55 | 43.06706 | 2.59973 | 6444 ft | 265 kts | 150° |
| 2026-04-20 15:56 | 43.05178 | 2.61247 | 6353 ft | 255 kts | 149° |
| 2026-04-20 15:56 | 43.03697 | 2.62490 | 6256 ft | 242 kts | 150° |
| 2026-04-20 15:56 | 43.02310 | 2.63651 | 6125 ft | 228 kts | 150° |
| 2026-04-20 15:56 | 43.00976 | 2.64764 | 5900 ft | 219 kts | 150° |
| 2026-04-20 15:57 | 42.99705 | 2.65829 | 5697 ft | 210 kts | 149° |
| 2026-04-20 15:57 | 42.98476 | 2.66864 | 5533 ft | 204 kts | 150° |
| 2026-04-20 15:57 | 42.97262 | 2.67882 | 5291 ft | 206 kts | 150° |
| 2026-04-20 15:57 | 42.96070 | 2.68876 | 5137 ft | 203 kts | 150° |
| 2026-04-20 15:58 | 42.94868 | 2.69882 | 4954 ft | 199 kts | 150° |
| 2026-04-20 15:58 | 42.93696 | 2.70853 | 4736 ft | 194 kts | 149° |
| 2026-04-20 15:58 | 42.92564 | 2.71804 | 4513 ft | 187 kts | 150° |
| 2026-04-20 15:58 | 42.91461 | 2.72728 | 4389 ft | 185 kts | 149° |
| 2026-04-20 15:59 | 42.90337 | 2.73682 | 4103 ft | 197 kts | 150° |
| 2026-04-20 15:59 | 42.89160 | 2.74651 | 3770 ft | 196 kts | 150° |
| 2026-04-20 15:59 | 42.87990 | 2.75631 | 3452 ft | 198 kts | 150° |
| 2026-04-20 15:59 | 42.86832 | 2.76613 | 3163 ft | 192 kts | 151° |
| 2026-04-20 16:00 | 42.85728 | 2.77534 | 2844 ft | 184 kts | 152° |
| 2026-04-20 16:00 | 42.84698 | 2.78396 | 2646 ft | 164 kts | 150° |
| 2026-04-20 16:00 | 42.83771 | 2.79176 | 2375 ft | 154 kts | 153° |
| 2026-04-20 16:00 | 42.82862 | 2.79928 | 2118 ft | 151 kts | 153° |
| 2026-04-20 16:01 | 42.82000 | 2.80651 | 1934 ft | 143 kts | 150° |
| 2026-04-20 16:01 | 42.81150 | 2.81365 | 1697 ft | 143 kts | 149° |
| 2026-04-20 16:01 | 42.80295 | 2.82089 | 1448 ft | 145 kts | 150° |
| 2026-04-20 16:01 | 42.79449 | 2.82795 | 1238 ft | 141 kts | 150° |
| 2026-04-20 16:02 | 42.78613 | 2.83488 | 1002 ft | 140 kts | 148° |
| 2026-04-20 16:02 | 42.77793 | 2.84164 | 798 ft | 135 kts | 147° |
| 2026-04-20 16:02 | 42.77010 | 2.84836 | 631 ft | 131 kts | 146° |
| 2026-04-20 16:02 | 42.76239 | 2.85458 | 407 ft | 126 kts | 145° |
| 2026-04-20 16:03 | 42.75538 | 2.86064 | 229 ft | 117 kts | 146° |
| 2026-04-20 16:03 | 42.74875 | 2.86623 | 147 ft | 104 kts | 146° |
| 2026-04-20 16:03 | 42.74383 | 2.87038 | 148 ft | 65 kts | 148° |
| 2026-04-20 16:03 | 42.74072 | 2.87276 | 145 ft | 32 kts | 147° |
| 2026-04-20 16:04 | 42.73896 | 2.87438 | 144 ft | 30 kts | 145° |
| 2026-04-20 16:04 | 42.73724 | 2.87587 | 147 ft | 28 kts | 147° |
| 2026-04-20 16:04 | 42.73628 | 2.87572 | 146 ft | 13 kts | 223° |
| 2026-04-20 16:04 | 42.73615 | 2.87458 | 147 ft | 13 kts | 291° |
| 2026-04-20 16:05 | 42.73679 | 2.87382 | 147 ft | 13 kts | 328° |
| 2026-04-20 16:05 | 42.73757 | 2.87317 | 146 ft | 14 kts | 328° |
| 2026-04-20 16:05 | 42.73853 | 2.87237 | 146 ft | 18 kts | 329° |
| 2026-04-20 16:05 | 42.73965 | 2.87139 | 146 ft | 16 kts | 311° |
| 2026-04-20 16:06 | 42.73962 | 2.86995 | 147 ft | 18 kts | 255° |
| 2026-04-20 16:06 | 42.73947 | 2.86875 | 147 ft | 9 kts | 282° |
| 2026-04-20 16:06 | 42.73981 | 2.86869 | 147 ft | 6 kts | 14° |
| 2026-04-20 16:06 | 42.74012 | 2.86866 | 147 ft | 0 kts | 347° |